createdAt,value
2022-12-29T00:00:55.916Z,99086.00
2022-12-29T00:03:22.814Z,99091.09
2022-12-29T00:05:56.451Z,99085.88
2022-12-29T00:08:40.183Z,99099.22
2022-12-29T00:11:16.801Z,99078.81
2022-12-29T00:14:03.051Z,99083.69
2022-12-29T00:16:31.055Z,99092.84
2022-12-29T00:18:58.541Z,99096.91
2022-12-29T00:22:01.994Z,99091.75
2022-12-29T00:24:37.644Z,99093.56
2022-12-29T00:27:22.683Z,99101.19
2022-12-29T00:30:11.074Z,99112.78
2022-12-29T00:32:56.234Z,99106.38
2022-12-29T00:35:40.511Z,99104.44
2022-12-29T00:38:28.768Z,99098.25
2022-12-29T00:41:13.983Z,99100.84
2022-12-29T00:43:59.292Z,99100.84
2022-12-29T00:46:26.209Z,99105.94
2022-12-29T00:49:11.805Z,99105.94
2022-12-29T00:51:38.547Z,99100.84
2022-12-29T00:54:05.330Z,99109.41
2022-12-29T00:56:32.078Z,99117.84
2022-12-29T00:59:03.354Z,99112.88
2022-12-29T01:01:30.603Z,99128.03
2022-12-29T01:04:02.175Z,99119.16
2022-12-29T01:06:31.436Z,99124.84
2022-12-29T01:09:16.770Z,99108.56
2022-12-29T01:11:43.606Z,99116.78
2022-12-29T01:14:10.504Z,99121.09
2022-12-29T01:16:37.603Z,99118.28
2022-12-29T01:19:05.086Z,99129.97
2022-12-29T01:21:32.113Z,99119.91
2022-12-29T01:23:58.886Z,99142.53
2022-12-29T01:26:25.667Z,99129.63
2022-12-29T01:28:52.485Z,99127.16
2022-12-29T01:31:19.638Z,99129.50
2022-12-29T01:33:46.575Z,99129.38
2022-12-29T01:36:16.223Z,99132.13
2022-12-29T01:38:45.638Z,99133.94
2022-12-29T01:41:14.733Z,99121.19
2022-12-29T01:43:52.345Z,99129.84
2022-12-29T01:46:39.881Z,99125.09
2022-12-29T01:49:09.370Z,99131.78
2022-12-29T01:51:47.050Z,99137.66
2022-12-29T01:54:37.649Z,99131.59
2022-12-29T01:57:09.596Z,99128.72
2022-12-29T01:59:41.714Z,99132.00
2022-12-29T02:02:08.947Z,99142.09
2022-12-29T02:04:40.734Z,99140.38
2022-12-29T02:07:15.399Z,99144.53
2022-12-29T02:09:43.446Z,99152.09
2022-12-29T02:12:11.189Z,99146.03
2022-12-29T02:14:38.152Z,99142.47
2022-12-29T02:17:32.837Z,99139.34
2022-12-29T02:20:57.002Z,99141.09
2022-12-29T02:23:38.632Z,99145.91
2022-12-29T02:26:29.294Z,99161.84
2022-12-29T02:29:07.727Z,99165.75
2022-12-29T02:31:53.903Z,99156.09
2022-12-29T02:34:32.679Z,99155.88
2022-12-29T02:37:05.389Z,99158.38
2022-12-29T02:39:51.319Z,99165.19
2022-12-29T02:42:36.915Z,99157.22
2022-12-29T02:45:09.531Z,99164.56
2022-12-29T02:48:13.988Z,99162.97
2022-12-29T02:50:47.386Z,99156.53
2022-12-29T02:53:38.585Z,99163.34
2022-12-29T02:56:05.583Z,99154.06
2022-12-29T02:58:32.369Z,99175.84
2022-12-29T03:01:24.959Z,99169.09
2022-12-29T03:04:07.838Z,99163.09
2022-12-29T03:06:52.919Z,99159.69
2022-12-29T03:09:25.722Z,99155.69
2022-12-29T03:12:17.269Z,99160.97
2022-12-29T03:15:27.155Z,99159.38
2022-12-29T03:18:05.860Z,99168.03
2022-12-29T03:20:43.023Z,99166.41
2022-12-29T03:23:11.737Z,99173.13
2022-12-29T03:25:44.475Z,99181.72
2022-12-29T03:28:18.390Z,99181.72
2022-12-29T03:30:47.553Z,99182.78
2022-12-29T03:33:18.588Z,99184.25
2022-12-29T03:35:47.587Z,99185.00
2022-12-29T03:38:26.120Z,99174.84
2022-12-29T03:41:03.051Z,99195.28
2022-12-29T03:43:30.850Z,99197.91
2022-12-29T03:45:57.605Z,99191.69
2022-12-29T03:48:24.375Z,99198.25
2022-12-29T03:50:51.253Z,99204.06
2022-12-29T03:53:18.085Z,99208.94
2022-12-29T03:55:45.450Z,99213.84
2022-12-29T03:58:12.364Z,99211.19
2022-12-29T04:00:39.112Z,99210.34
2022-12-29T04:03:08.094Z,99209.78
2022-12-29T04:05:34.915Z,99209.88
2022-12-29T04:08:01.688Z,99210.63
2022-12-29T04:10:28.448Z,99215.84
2022-12-29T04:12:55.204Z,99212.63
2022-12-29T04:15:22.022Z,99220.16
2022-12-29T04:17:48.782Z,99211.63
2022-12-29T04:20:34.397Z,99222.50
2022-12-29T04:23:05.945Z,99220.78
2022-12-29T04:25:33.857Z,99223.16
2022-12-29T04:28:01.932Z,99229.78
2022-12-29T04:30:28.879Z,99228.78
2022-12-29T04:32:55.763Z,99227.19
2022-12-29T04:35:22.564Z,99218.03
2022-12-29T04:37:49.328Z,99222.38
2022-12-29T04:40:16.300Z,99219.16
2022-12-29T04:42:43.478Z,99220.91
2022-12-29T04:45:10.715Z,99231.06
2022-12-29T04:47:37.419Z,99230.16
2022-12-29T04:50:04.991Z,99231.72
2022-12-29T04:52:31.828Z,99233.25
2022-12-29T04:55:00.869Z,99234.94
2022-12-29T04:57:28.138Z,99230.78
2022-12-29T04:59:55.000Z,99234.38
2022-12-29T05:02:21.958Z,99244.53
2022-12-29T05:04:48.879Z,99238.47
2022-12-29T05:07:18.552Z,99240.78
2022-12-29T05:09:47.488Z,99245.88
2022-12-29T05:12:14.401Z,99247.63
2022-12-29T05:14:41.121Z,99250.84
2022-12-29T05:19:52.221Z,99254.91
2022-12-29T05:22:19.058Z,99250.00
2022-12-29T05:24:45.967Z,99245.16
2022-12-29T05:27:12.827Z,99248.59
2022-12-29T05:29:39.660Z,99246.69
2022-12-29T05:32:06.685Z,99253.47
2022-12-29T05:34:34.353Z,99257.75
2022-12-29T05:37:01.958Z,99269.50
2022-12-29T05:39:28.732Z,99268.50
2022-12-29T05:41:55.591Z,99277.53
2022-12-29T05:44:22.411Z,99274.97
2022-12-29T05:46:49.294Z,99275.78
2022-12-29T05:49:16.646Z,99267.50
2022-12-29T05:51:43.576Z,99273.59
2022-12-29T05:54:10.450Z,99286.19
2022-12-29T05:56:37.281Z,99279.53
2022-12-29T05:59:04.124Z,99279.66
2022-12-29T06:01:31.055Z,99276.19
2022-12-29T06:03:58.052Z,99271.13
2022-12-29T06:06:24.930Z,99279.66
2022-12-29T06:08:51.695Z,99272.97
2022-12-29T06:11:18.605Z,99279.91
2022-12-29T06:13:45.398Z,99274.22
2022-12-29T06:16:12.265Z,99268.56
2022-12-29T06:18:39.125Z,99271.34
2022-12-29T06:21:06.671Z,99269.75
2022-12-29T06:23:34.023Z,99280.88
2022-12-29T06:26:00.911Z,99279.34
2022-12-29T06:28:27.765Z,99284.41
2022-12-29T06:30:54.601Z,99284.28
2022-12-29T06:33:22.038Z,99282.28
2022-12-29T06:35:48.996Z,99282.03
2022-12-29T06:38:16.104Z,99287.88
2022-12-29T06:40:45.955Z,99281.91
2022-12-29T06:43:13.029Z,99290.34
2022-12-29T06:45:41.375Z,99290.19
2022-12-29T06:48:08.833Z,99291.66
2022-12-29T06:50:36.190Z,99293.34
2022-12-29T06:53:03.090Z,99290.88
2022-12-29T06:55:29.971Z,99290.06
2022-12-29T06:57:57.847Z,99290.81
2022-12-29T07:00:25.964Z,99283.13
2022-12-29T07:02:53.341Z,99287.34
2022-12-29T07:05:20.245Z,99280.53
2022-12-29T07:07:47.156Z,99281.53
2022-12-29T07:10:14.121Z,99290.19
2022-12-29T07:12:40.906Z,99288.72
2022-12-29T07:15:08.406Z,99295.66
2022-12-29T07:17:35.670Z,99298.13
2022-12-29T07:20:02.642Z,99298.13
2022-12-29T07:22:30.636Z,99296.47
2022-12-29T07:24:57.583Z,99300.88
2022-12-29T07:27:24.324Z,99297.41
2022-12-29T07:29:51.219Z,99287.97
2022-12-29T07:32:18.052Z,99297.28
2022-12-29T07:34:48.402Z,99292.06
2022-12-29T07:37:18.148Z,99293.81
2022-12-29T07:39:44.915Z,99294.13
2022-12-29T07:42:11.715Z,99296.50
2022-12-29T07:44:38.593Z,99304.09
2022-12-29T07:47:05.560Z,99308.22
2022-12-29T07:49:32.496Z,99311.28
2022-12-29T07:51:59.294Z,99303.66
2022-12-29T07:54:26.366Z,99306.19
2022-12-29T07:56:53.409Z,99318.09
2022-12-29T07:59:20.480Z,99316.34
2022-12-29T08:01:47.793Z,99310.28
2022-12-29T08:04:14.730Z,99313.69
2022-12-29T08:06:41.564Z,99314.22
2022-12-29T08:09:15.163Z,99314.34
2022-12-29T08:11:45.313Z,99319.72
2022-12-29T08:14:12.182Z,99324.16
2022-12-29T08:16:39.167Z,99322.78
2022-12-29T08:19:06.161Z,99322.03
2022-12-29T08:21:33.100Z,99323.09
2022-12-29T08:24:00.262Z,99329.31
2022-12-29T08:26:27.187Z,99321.56
2022-12-29T08:28:54.705Z,99327.31
2022-12-29T08:31:21.500Z,99322.38
2022-12-29T08:33:48.501Z,99325.97
2022-12-29T08:36:15.737Z,99336.41
2022-12-29T08:38:42.583Z,99337.19
2022-12-29T08:41:09.347Z,99331.31
2022-12-29T08:43:36.149Z,99335.31
2022-12-29T08:46:02.955Z,99330.00
2022-12-29T08:48:29.757Z,99327.19
2022-12-29T08:50:56.553Z,99328.94
2022-12-29T08:53:23.347Z,99321.19
2022-12-29T08:56:03.990Z,99323.03
2022-12-29T08:58:33.138Z,99322.19
2022-12-29T09:01:00.398Z,99323.97
2022-12-29T09:06:15.956Z,99330.94
2022-12-29T09:08:42.703Z,99318.03
2022-12-29T09:11:16.847Z,99321.72
2022-12-29T09:13:43.832Z,99322.03
2022-12-29T09:16:11.015Z,99331.25
2022-12-29T09:18:38.210Z,99334.78
2022-12-29T09:21:07.351Z,99330.78
2022-12-29T09:23:35.264Z,99331.00
2022-12-29T09:26:02.463Z,99328.56
2022-12-29T09:28:30.077Z,99323.03
2022-12-29T09:30:57.749Z,99319.03
2022-12-29T09:33:25.015Z,99316.63
2022-12-29T09:35:54.490Z,99314.25
2022-12-29T09:38:21.607Z,99325.53
2022-12-29T09:40:56.775Z,99314.16
2022-12-29T09:43:29.677Z,99311.75
2022-12-29T09:46:04.372Z,99311.50
2022-12-29T09:48:38.410Z,99320.19
2022-12-29T09:51:12.952Z,99315.41
2022-12-29T09:53:47.589Z,99325.31
2022-12-29T09:56:21.953Z,99319.47
2022-12-29T09:59:08.495Z,99325.69
2022-12-29T10:01:53.023Z,99320.63
2022-12-29T10:04:20.034Z,99315.41
2022-12-29T10:07:28.945Z,99329.84
2022-12-29T10:10:08.492Z,99321.50
2022-12-29T10:12:55.879Z,99321.13
2022-12-29T10:15:41.232Z,99315.78
2022-12-29T10:18:36.852Z,99318.63
2022-12-29T10:21:28.558Z,99320.47
2022-12-29T10:23:57.199Z,99318.13
2022-12-29T10:26:34.626Z,99314.28
2022-12-29T10:29:06.226Z,99322.97
2022-12-29T10:31:38.649Z,99324.09
2022-12-29T10:34:17.736Z,99326.09
2022-12-29T10:36:49.837Z,99315.31
2022-12-29T10:39:24.200Z,99315.53
2022-12-29T10:42:17.090Z,99317.28
2022-12-29T10:44:43.930Z,99326.63
2022-12-29T10:47:18.134Z,99337.13
2022-12-29T10:49:48.552Z,99330.91
2022-12-29T10:52:18.115Z,99336.78
2022-12-29T10:54:56.754Z,99328.44
2022-12-29T10:57:37.403Z,99322.09
2022-12-29T11:00:17.548Z,99324.69
2022-12-29T11:03:02.469Z,99313.84
2022-12-29T11:05:51.655Z,99318.06
2022-12-29T11:08:26.199Z,99302.75
2022-12-29T11:11:07.709Z,99301.50
2022-12-29T11:14:11.676Z,99296.66
2022-12-29T11:16:38.568Z,99289.81
2022-12-29T11:19:05.923Z,99292.44
2022-12-29T11:21:41.473Z,99288.47
2022-12-29T11:24:27.159Z,99289.53
2022-12-29T11:26:58.965Z,99294.47
2022-12-29T11:29:37.800Z,99289.38
2022-12-29T11:32:26.123Z,99296.28
2022-12-29T11:34:55.091Z,99293.53
2022-12-29T11:37:39.883Z,99301.38
2022-12-29T11:40:17.983Z,99297.91
2022-12-29T11:42:58.290Z,99292.97
2022-12-29T11:45:33.452Z,99297.13
2022-12-29T11:48:08.033Z,99299.75
2022-12-29T11:50:40.138Z,99299.88
2022-12-29T11:53:21.265Z,99305.88
2022-12-29T11:55:57.078Z,99314.09
2022-12-29T11:58:33.550Z,99309.72
2022-12-29T12:01:06.151Z,99314.72
2022-12-29T12:03:37.475Z,99313.63
2022-12-29T12:06:05.108Z,99330.50
2022-12-29T12:08:41.736Z,99330.63
2022-12-29T12:11:34.244Z,99329.13
2022-12-29T12:14:07.953Z,99330.75
2022-12-29T12:16:45.580Z,99327.50
2022-12-29T12:19:33.034Z,99327.63
2022-12-29T12:22:16.989Z,99331.31
2022-12-29T12:24:48.450Z,99327.84
2022-12-29T12:27:41.027Z,99321.50
2022-12-29T12:30:21.360Z,99320.50
2022-12-29T12:32:56.696Z,99319.78
2022-12-29T12:35:47.775Z,99309.03
2022-12-29T12:38:38.257Z,99316.66
2022-12-29T12:41:41.978Z,99316.66
2022-12-29T12:44:37.344Z,99308.09
2022-12-29T12:47:34.241Z,99319.00
2022-12-29T12:50:06.929Z,99312.16
2022-12-29T12:53:04.865Z,99306.34
2022-12-29T12:55:37.505Z,99314.69
2022-12-29T12:58:19.329Z,99314.56
2022-12-29T13:00:58.108Z,99311.44
2022-12-29T13:03:43.239Z,99312.03
2022-12-29T13:06:36.713Z,99309.59
2022-12-29T13:09:31.254Z,99314.69
2022-12-29T13:12:40.252Z,99317.28
2022-12-29T13:15:43.636Z,99316.31
2022-12-29T13:18:25.599Z,99318.84
2022-12-29T13:20:58.797Z,99315.59
2022-12-29T13:23:43.422Z,99313.91
2022-12-29T13:26:22.035Z,99323.44
2022-12-29T13:29:18.197Z,99316.88
2022-12-29T13:32:24.326Z,99320.31
2022-12-29T13:34:51.225Z,99313.34
2022-12-29T13:37:21.716Z,99310.97
2022-12-29T13:40:14.124Z,99313.84
2022-12-29T13:42:42.886Z,99308.44
2022-12-29T13:45:22.251Z,99317.09
2022-12-29T13:48:03.581Z,99316.34
2022-12-29T13:50:36.579Z,99308.72
2022-12-29T13:53:28.494Z,99311.50
2022-12-29T13:56:21.540Z,99302.16
2022-12-29T13:58:56.578Z,99306.22
2022-12-29T14:01:40.883Z,99309.75
2022-12-29T14:04:21.993Z,99311.25
2022-12-29T14:07:04.129Z,99310.50
2022-12-29T14:09:43.051Z,99313.59
2022-12-29T14:12:30.468Z,99317.09
2022-12-29T14:15:12.264Z,99316.22
2022-12-29T14:17:41.558Z,99311.78
2022-12-29T14:20:21.895Z,99309.22
2022-12-29T14:23:11.715Z,99311.91
2022-12-29T14:25:58.190Z,99312.03
2022-12-29T14:28:32.529Z,99313.63
2022-12-29T14:31:04.752Z,99315.34
2022-12-29T14:33:33.599Z,99313.63
2022-12-29T14:36:21.511Z,99313.09
2022-12-29T14:38:49.306Z,99322.19
2022-12-29T14:41:30.113Z,99317.31
2022-12-29T14:44:20.061Z,99322.66
2022-12-29T14:47:01.255Z,99317.56
2022-12-29T14:49:42.065Z,99317.56
2022-12-29T14:52:20.565Z,99314.94
2022-12-29T14:54:58.778Z,99317.31
2022-12-29T14:57:28.342Z,99321.75
2022-12-29T15:00:07.582Z,99319.28
2022-12-29T15:02:41.059Z,99315.22
2022-12-29T15:05:26.621Z,99316.41
2022-12-29T15:07:55.053Z,99316.19
2022-12-29T15:10:23.947Z,99329.78
2022-12-29T15:12:56.850Z,99322.25
2022-12-29T15:15:27.674Z,99318.56
2022-12-29T15:17:54.606Z,99324.25
2022-12-29T15:20:32.618Z,99331.19
2022-12-29T15:23:04.335Z,99327.72
2022-12-29T15:25:32.347Z,99320.69
2022-12-29T15:28:05.444Z,99320.69
2022-12-29T15:30:32.443Z,99315.34
2022-12-29T15:32:59.673Z,99315.25
2022-12-29T15:35:37.853Z,99315.25
2022-12-29T15:38:32.229Z,99298.13
2022-12-29T15:41:14.622Z,99299.53
2022-12-29T15:43:47.199Z,99309.59
2022-12-29T15:46:15.309Z,99306.22
2022-12-29T15:48:42.523Z,99302.78
2022-12-29T15:51:20.110Z,99300.41
2022-12-29T15:53:52.918Z,99298.66
2022-12-29T15:56:20.092Z,99300.28
2022-12-29T15:58:49.851Z,99301.28
2022-12-29T16:01:28.675Z,99296.31
2022-12-29T16:03:56.380Z,99296.19
2022-12-29T16:06:26.060Z,99294.56
2022-12-29T16:09:15.681Z,99288.19
2022-12-29T16:11:52.038Z,99286.59
2022-12-29T16:14:34.985Z,99289.44
2022-12-29T16:17:05.144Z,99279.34
2022-12-29T16:19:38.787Z,99272.75
2022-12-29T16:22:13.929Z,99273.75
2022-12-29T16:24:41.204Z,99272.81
2022-12-29T16:27:15.284Z,99267.97
2022-12-29T16:29:42.245Z,99264.59
2022-12-29T16:32:32.238Z,99261.56
2022-12-29T16:35:29.902Z,99251.44
2022-12-29T16:38:19.287Z,99264.09
2022-12-29T16:41:03.076Z,99260.69
2022-12-29T16:43:35.699Z,99255.50
2022-12-29T16:46:02.540Z,99254.53
2022-12-29T16:48:33.422Z,99261.38
2022-12-29T16:51:18.608Z,99255.69
2022-12-29T16:53:55.931Z,99251.44
2022-12-29T16:56:26.533Z,99251.25
2022-12-29T16:59:26.963Z,99258.34
2022-12-29T17:01:56.842Z,99257.25
2022-12-29T17:04:23.601Z,99255.63
2022-12-29T17:06:50.307Z,99259.81
2022-12-29T17:09:26.290Z,99258.22
2022-12-29T17:12:05.400Z,99256.34
2022-12-29T17:14:40.200Z,99254.59
2022-12-29T17:17:14.927Z,99263.25
2022-12-29T17:19:45.515Z,99259.78
2022-12-29T17:22:27.756Z,99261.72
2022-12-29T17:24:56.404Z,99262.34
2022-12-29T17:27:25.876Z,99245.44
2022-12-29T17:29:57.137Z,99250.53
2022-12-29T17:32:24.174Z,99252.22
2022-12-29T17:34:50.924Z,99250.59
2022-12-29T17:37:31.425Z,99245.84
2022-12-29T17:39:58.351Z,99244.78
2022-12-29T17:42:25.339Z,99237.19
2022-12-29T17:44:54.299Z,99242.28
2022-12-29T17:47:21.175Z,99244.78
2022-12-29T17:49:47.981Z,99238.91
2022-12-29T17:52:16.717Z,99240.59
2022-12-29T17:54:47.803Z,99232.16
2022-12-29T17:57:16.206Z,99225.25
2022-12-29T17:59:43.457Z,99231.13
2022-12-29T18:02:32.206Z,99222.88
2022-12-29T18:04:59.484Z,99225.97
2022-12-29T18:07:33.822Z,99222.59
2022-12-29T18:10:02.304Z,99226.03
2022-12-29T18:12:39.421Z,99220.28
2022-12-29T18:15:08.458Z,99226.69
2022-12-29T18:17:36.516Z,99221.28
2022-12-29T18:20:03.447Z,99222.81
2022-12-29T18:22:33.424Z,99224.34
2022-12-29T18:25:02.035Z,99231.91
2022-12-29T18:27:31.072Z,99225.84
2022-12-29T18:29:57.881Z,99225.63
2022-12-29T18:32:24.659Z,99229.78
2022-12-29T18:34:51.442Z,99223.06
2022-12-29T18:37:18.299Z,99220.53
2022-12-29T18:39:45.061Z,99218.94
2022-12-29T18:42:17.545Z,99216.66
2022-12-29T18:44:44.459Z,99218.34
2022-12-29T18:47:11.286Z,99219.25
2022-12-29T18:49:38.084Z,99219.25
2022-12-29T18:52:05.252Z,99217.38
2022-12-29T18:54:34.057Z,99219.13
2022-12-29T18:57:01.082Z,99218.28
2022-12-29T18:59:27.941Z,99218.22
2022-12-29T19:01:54.807Z,99211.44
2022-12-29T19:04:22.407Z,99210.69
2022-12-29T19:06:49.246Z,99215.06
2022-12-29T19:09:16.031Z,99212.66
2022-12-29T19:11:43.055Z,99212.66
2022-12-29T19:14:16.434Z,99211.97
2022-12-29T19:16:43.230Z,99207.63
2022-12-29T19:19:14.766Z,99211.97
2022-12-29T19:21:41.576Z,99214.34
2022-12-29T19:24:08.464Z,99214.25
2022-12-29T19:26:38.400Z,99209.88
2022-12-29T19:29:07.688Z,99207.13
2022-12-29T19:31:35.146Z,99209.44
2022-12-29T19:34:03.200Z,99210.28
2022-12-29T19:36:30.301Z,99207.50
2022-12-29T19:38:57.194Z,99204.03
2022-12-29T19:41:24.922Z,99201.50
2022-12-29T19:43:51.791Z,99199.75
2022-12-29T19:46:19.470Z,99193.06
2022-12-29T19:48:46.375Z,99201.59
2022-12-29T19:51:17.202Z,99200.09
2022-12-29T19:53:45.526Z,99198.47
2022-12-29T19:56:13.349Z,99203.66
2022-12-29T19:58:45.242Z,99202.03
2022-12-29T20:01:23.299Z,99194.53
2022-12-29T20:03:51.036Z,99191.75
2022-12-29T20:06:18.665Z,99191.75
2022-12-29T20:08:45.462Z,99191.75
2022-12-29T20:11:15.199Z,99187.56
2022-12-29T20:13:42.667Z,99191.75
2022-12-29T20:16:18.197Z,99186.78
2022-12-29T20:18:46.570Z,99191.75
2022-12-29T20:21:16.451Z,99183.31
2022-12-29T20:23:44.938Z,99181.47
2022-12-29T20:26:18.672Z,99178.84
2022-12-29T20:28:46.072Z,99184.47
2022-12-29T20:31:18.619Z,99187.97
2022-12-29T20:33:45.895Z,99178.34
2022-12-29T20:36:18.959Z,99178.41
2022-12-29T20:38:46.726Z,99175.63
2022-12-29T20:41:14.091Z,99183.13
2022-12-29T20:43:41.268Z,99180.59
2022-12-29T20:46:08.756Z,99176.34
2022-12-29T20:48:35.680Z,99177.13
2022-12-29T20:51:02.706Z,99171.13
2022-12-29T20:53:31.493Z,99172.06
2022-12-29T20:56:22.665Z,99176.53
2022-12-29T20:59:25.971Z,99167.94
2022-12-29T21:01:37.444Z,99160.38
2022-12-29T21:04:05.737Z,99164.72
2022-12-29T21:06:33.223Z,99152.09
2022-12-29T21:09:00.342Z,99148.84
2022-12-29T21:11:27.603Z,99146.25
2022-12-29T21:13:55.711Z,99147.06
2022-12-29T21:16:24.154Z,99141.06
2022-12-29T21:18:51.639Z,99143.47
2022-12-29T21:21:21.710Z,99144.38
2022-12-29T21:23:49.144Z,99139.16
2022-12-29T21:26:23.863Z,99136.69
2022-12-29T21:28:51.619Z,99131.47
2022-12-29T21:31:37.459Z,99127.47
2022-12-29T21:34:06.365Z,99119.78
2022-12-29T21:36:33.563Z,99116.53
2022-12-29T21:39:00.901Z,99113.28
2022-12-29T21:41:27.692Z,99117.50
2022-12-29T21:44:13.409Z,99115.81
2022-12-29T21:46:46.889Z,99120.00
2022-12-29T21:49:13.841Z,99116.53
2022-12-29T21:51:57.509Z,99118.16
2022-12-29T21:54:47.042Z,99109.63
2022-12-29T21:57:35.110Z,99102.00
2022-12-29T22:00:20.905Z,99111.19
2022-12-29T22:03:06.357Z,99107.69
2022-12-29T22:05:51.583Z,99102.59
2022-12-29T22:08:37.107Z,99105.88
2022-12-29T22:11:26.869Z,99107.56
2022-12-29T22:13:56.098Z,99109.19
2022-12-29T22:16:24.733Z,99107.44
2022-12-29T22:18:52.166Z,99113.38
2022-12-29T22:21:19.650Z,99112.53
2022-12-29T22:23:46.473Z,99106.59
2022-12-29T22:26:14.245Z,99107.56
2022-12-29T22:28:43.986Z,99109.31
2022-12-29T22:31:30.144Z,99105.13
2022-12-29T22:33:59.085Z,99099.81
2022-12-29T22:36:27.224Z,99102.28
2022-12-29T22:38:54.403Z,99101.38
2022-12-29T22:41:21.275Z,99108.94
2022-12-29T22:43:48.076Z,99105.50
2022-12-29T22:46:15.098Z,99103.84
2022-12-29T22:48:41.925Z,99100.50
2022-12-29T22:51:08.659Z,99103.09
2022-12-29T22:53:35.573Z,99102.28
2022-12-29T22:56:11.513Z,99099.03
2022-12-29T22:58:43.246Z,99099.88
2022-12-29T23:01:11.743Z,99093.94
2022-12-29T23:03:39.429Z,99084.69
2022-12-29T23:06:07.794Z,99085.66
2022-12-29T23:08:37.269Z,99080.75
2022-12-29T23:11:06.481Z,99082.44
2022-12-29T23:13:33.615Z,99090.19
2022-12-29T23:16:00.630Z,99080.94
2022-12-29T23:18:27.920Z,99081.84
2022-12-29T23:20:54.737Z,99078.56
2022-12-29T23:23:46.495Z,99082.88
2022-12-29T23:26:16.462Z,99095.69
2022-12-29T23:28:43.279Z,99094.13
2022-12-29T23:31:10.109Z,99092.38
2022-12-29T23:33:37.087Z,99098.25
2022-12-29T23:36:04.652Z,99098.13
2022-12-29T23:38:31.457Z,99098.00
2022-12-29T23:40:58.247Z,99102.31
2022-12-29T23:43:24.966Z,99101.50
2022-12-29T23:45:51.847Z,99100.63
2022-12-29T23:48:19.353Z,99099.75
2022-12-29T23:50:46.973Z,99081.16
2022-12-29T23:53:13.720Z,99074.44
2022-12-29T23:55:44.467Z,99085.69
2022-12-29T23:58:11.649Z,99074.50
